Terminal Aerodrome Forecast
Issued by NWS

Home | Current Version | Previous Version | Text Only | Print | Product List | Glossary On
Versions: 1 2 3 4 5 6 7 8 9 10 11 12 13 14 15 16 17 18 19 20 21 22 23 24 25 26 27
000
FTUS44 KOUN 261132
TAFCSM
TAF
KCSM 261132Z 2612/2712 07013KT 5SM BR OVC012
      TEMPO 2612/2615 2SM BR OVC006
     FM261700 07014G20KT P6SM OVC025
     FM262100 08016G24KT P6SM SCT035 BKN250
     FM262300 08015G24KT P6SM BKN035
      TEMPO 2623/2703 2SM TSRA BR BKN030CB
     FM270300 08015G24KT 4SM TSRA BR OVC030CB
      TEMPO 2703/2706 1SM TSRA BR OVC012CB
     FM270600 04016G25KT 3SM TSRA BR OVC012CB=

USA.gov is the U.S. government's official web portal to all federal, state and local government web resources and services.